createdAt,value
2023-04-01T00:01:06.019Z,10.03
2023-04-01T00:03:34.367Z,9.99
2023-04-01T00:06:02.367Z,10.06
2023-04-01T00:08:29.559Z,10.03
2023-04-01T00:10:57.839Z,10.02
2023-04-01T00:13:26.639Z,10.05
2023-04-01T00:15:54.844Z,10.01
2023-04-01T00:18:21.648Z,9.97
2023-04-01T00:20:52.108Z,10.01
2023-04-01T00:23:19.611Z,10.06
2023-04-01T00:25:48.922Z,10.06
2023-04-01T00:28:17.553Z,10.08
2023-04-01T00:30:44.141Z,10.08
2023-04-01T00:33:10.907Z,10.07
2023-04-01T00:35:37.834Z,10.08
2023-04-01T00:38:04.988Z,10.04
2023-04-01T00:40:38.364Z,10.04
2023-04-01T00:43:12.955Z,10.02
2023-04-01T00:45:42.466Z,9.96
2023-04-01T00:48:24.197Z,9.90
2023-04-01T00:50:55.297Z,9.89
2023-04-01T00:53:23.613Z,9.82
2023-04-01T00:55:57.460Z,9.82
2023-04-01T00:58:26.864Z,9.82
2023-04-01T01:00:54.511Z,9.82
2023-04-01T01:03:21.141Z,9.72
2023-04-01T01:05:50.712Z,9.83
2023-04-01T01:08:39.032Z,9.85
2023-04-01T01:11:09.302Z,9.77
2023-04-01T01:13:49.197Z,9.93
2023-04-01T01:16:28.008Z,9.95
2023-04-01T01:18:59.180Z,9.96
2023-04-01T01:21:51.813Z,9.84
2023-04-01T01:24:39.475Z,9.98
2023-04-01T01:27:11.518Z,10.01
2023-04-01T01:30:10.400Z,9.95
2023-04-01T01:32:56.480Z,9.90
2023-04-01T01:35:34.608Z,9.94
2023-04-01T01:38:05.316Z,9.85
2023-04-01T01:40:35.450Z,9.83
2023-04-01T01:43:07.224Z,9.82
2023-04-01T01:45:37.842Z,9.82
2023-04-01T01:48:06.358Z,9.81
2023-04-01T01:50:34.349Z,9.86
2023-04-01T01:53:09.906Z,9.83
2023-04-01T01:55:39.413Z,9.91
2023-04-01T01:58:24.354Z,9.88
2023-04-01T02:00:58.469Z,9.85
2023-04-01T02:03:27.913Z,9.84
2023-04-01T02:05:57.769Z,9.87
2023-04-01T02:08:32.384Z,9.89
2023-04-01T02:11:22.529Z,9.88
2023-04-01T02:13:58.064Z,9.88
2023-04-01T02:16:38.995Z,9.89
2023-04-01T02:19:10.624Z,9.87
2023-04-01T02:21:39.123Z,9.86
2023-04-01T02:24:11.353Z,9.84
2023-04-01T02:26:38.171Z,9.87
2023-04-01T02:29:07.993Z,9.88
2023-04-01T02:31:35.799Z,9.82
2023-04-01T02:34:04.075Z,9.89
2023-04-01T02:36:31.025Z,9.85
2023-04-01T02:39:03.128Z,9.87
2023-04-01T02:41:29.954Z,9.86
2023-04-01T02:43:58.362Z,9.81
2023-04-01T02:46:26.060Z,9.86
2023-04-01T02:48:52.623Z,9.78
2023-04-01T02:51:19.212Z,9.83
2023-04-01T02:53:45.750Z,9.76
2023-04-01T02:56:12.289Z,9.75
2023-04-01T02:58:38.824Z,9.79
2023-04-01T03:01:05.567Z,9.81
2023-04-01T03:03:32.212Z,9.76
2023-04-01T03:06:01.090Z,9.74
2023-04-01T03:08:27.675Z,9.72
2023-04-01T03:10:54.212Z,9.74
2023-04-01T03:13:20.740Z,9.76
2023-04-01T03:15:47.264Z,9.72
2023-04-01T03:18:13.845Z,9.75
2023-04-01T03:20:40.525Z,9.72
2023-04-01T03:23:08.236Z,9.75
2023-04-01T03:25:34.948Z,9.69
2023-04-01T03:28:02.142Z,9.69
2023-04-01T03:30:30.911Z,9.66
2023-04-01T03:32:58.622Z,9.66
2023-04-01T03:35:25.475Z,9.64
2023-04-01T03:37:53.521Z,9.67
2023-04-01T03:40:20.315Z,9.65
2023-04-01T03:42:47.147Z,9.66
2023-04-01T03:45:13.968Z,9.68
2023-04-01T03:47:40.791Z,9.68
2023-04-01T03:50:08.730Z,9.70
2023-04-01T03:52:35.774Z,9.75
2023-04-01T03:55:03.091Z,9.70
2023-04-01T03:57:32.642Z,9.70
2023-04-01T03:59:59.388Z,9.69
2023-04-01T04:02:26.079Z,9.76
2023-04-01T04:04:52.706Z,9.76
2023-04-01T04:07:19.301Z,9.76
2023-04-01T04:09:45.861Z,9.78
2023-04-01T04:12:12.376Z,9.77
2023-04-01T04:14:38.881Z,9.81
2023-04-01T04:17:05.509Z,9.81
2023-04-01T04:19:37.536Z,9.76
2023-04-01T04:22:04.071Z,9.81
2023-04-01T04:24:30.709Z,9.81
2023-04-01T04:26:57.234Z,9.88
2023-04-01T04:29:23.829Z,9.84
2023-04-01T04:31:50.411Z,9.86
2023-04-01T04:34:16.997Z,9.86
2023-04-01T04:36:43.965Z,9.91
2023-04-01T04:39:10.670Z,9.85
2023-04-01T04:41:38.856Z,9.88
2023-04-01T04:44:06.379Z,9.88
2023-04-01T04:46:33.453Z,9.90
2023-04-01T04:49:00.112Z,9.87
2023-04-01T04:51:26.868Z,9.95
2023-04-01T04:53:53.463Z,9.91
2023-04-01T04:56:22.200Z,9.89
2023-04-01T04:58:49.513Z,9.88
2023-04-01T05:01:17.445Z,9.94
2023-04-01T05:03:44.504Z,9.97
2023-04-01T05:06:12.839Z,9.88
2023-04-01T05:08:41.262Z,9.93
2023-04-01T05:11:13.624Z,9.89
2023-04-01T05:13:40.743Z,9.92
2023-04-01T05:16:18.634Z,9.92
2023-04-01T05:18:45.451Z,9.97
2023-04-01T05:21:14.870Z,9.94
2023-04-01T05:23:41.339Z,9.94
2023-04-01T05:26:13.474Z,9.98
2023-04-01T05:28:40.617Z,9.89
2023-04-01T05:31:08.288Z,10.01
2023-04-01T05:33:35.676Z,10.00
2023-04-01T05:36:14.081Z,9.87
2023-04-01T05:38:41.147Z,10.00
2023-04-01T05:41:07.738Z,10.04
2023-04-01T05:43:37.913Z,10.06
2023-04-01T05:46:04.536Z,10.06
2023-04-01T05:48:31.161Z,9.98
2023-04-01T05:50:57.779Z,10.13
2023-04-01T05:53:24.368Z,10.15
2023-04-01T05:55:50.928Z,10.08
2023-04-01T05:58:17.468Z,10.19
2023-04-01T06:00:44.430Z,10.04
2023-04-01T06:03:11.169Z,10.14
2023-04-01T06:05:46.541Z,10.08
2023-04-01T06:08:17.626Z,9.98
2023-04-01T06:11:14.605Z,9.95
2023-04-01T06:14:04.813Z,10.04
2023-04-01T06:16:46.076Z,10.14
2023-04-01T06:19:33.709Z,10.22
2023-04-01T06:22:38.217Z,10.41
2023-04-01T06:25:27.930Z,10.50
2023-04-01T06:28:00.490Z,10.56
2023-04-01T06:30:58.944Z,10.65
2023-04-01T06:34:02.941Z,10.85
2023-04-01T06:36:54.055Z,10.79
2023-04-01T06:39:53.392Z,10.86
2023-04-01T06:43:14.018Z,11.03
2023-04-01T06:45:54.330Z,11.01
2023-04-01T06:48:42.413Z,11.08
2023-04-01T06:51:40.696Z,11.17
2023-04-01T06:54:17.646Z,11.25
2023-04-01T06:56:51.469Z,11.08
2023-04-01T06:59:26.149Z,11.23
2023-04-01T07:02:06.834Z,11.20
2023-04-01T07:04:39.263Z,11.34
2023-04-01T07:07:38.593Z,11.29
2023-04-01T07:10:18.061Z,11.29
2023-04-01T07:12:53.423Z,11.28
2023-04-01T07:15:29.619Z,11.26
2023-04-01T07:18:21.241Z,11.30
2023-04-01T07:20:48.030Z,11.29
2023-04-01T07:23:24.160Z,11.39
2023-04-01T07:25:59.465Z,11.44
2023-04-01T07:28:32.265Z,11.59
2023-04-01T07:31:09.390Z,11.51
2023-04-01T07:33:43.199Z,11.49
2023-04-01T07:36:34.909Z,11.46
2023-04-01T07:39:15.086Z,11.47
2023-04-01T07:41:44.727Z,11.49
2023-04-01T07:44:26.214Z,11.37
2023-04-01T07:47:14.529Z,11.56
2023-04-01T07:50:02.687Z,11.43
2023-04-01T07:52:32.084Z,11.40
2023-04-01T07:55:10.536Z,11.54
2023-04-01T07:57:49.019Z,11.58
2023-04-01T08:00:24.203Z,11.57
2023-04-01T08:03:03.099Z,11.47
2023-04-01T08:05:47.222Z,11.49
2023-04-01T08:08:55.659Z,11.50
2023-04-01T08:11:33.676Z,11.54
2023-04-01T08:14:15.370Z,11.52
2023-04-01T08:16:51.552Z,11.61
2023-04-01T08:20:03.827Z,11.76
2023-04-01T08:22:37.478Z,11.84
2023-04-01T08:25:08.784Z,12.01
2023-04-01T08:27:53.023Z,12.13
2023-04-01T08:30:24.361Z,12.17
2023-04-01T08:33:09.334Z,12.10
2023-04-01T08:35:50.929Z,12.44
2023-04-01T08:38:24.276Z,12.75
2023-04-01T08:41:01.157Z,12.70
2023-04-01T08:43:46.334Z,12.86
2023-04-01T08:46:43.617Z,12.62
2023-04-01T08:49:36.468Z,12.10
2023-04-01T08:52:08.807Z,12.29
2023-04-01T08:55:00.717Z,12.04
2023-04-01T08:57:35.989Z,12.01
2023-04-01T09:00:12.169Z,12.22
2023-04-01T09:02:56.784Z,12.62
2023-04-01T09:05:38.635Z,12.48
2023-04-01T09:08:31.503Z,12.36
2023-04-01T09:11:09.347Z,12.20
2023-04-01T09:13:38.956Z,12.25
2023-04-01T09:16:37.610Z,12.38
2023-04-01T09:19:25.855Z,12.43
2023-04-01T09:22:00.448Z,12.26
2023-04-01T09:24:53.236Z,12.54
2023-04-01T09:27:19.782Z,12.41
2023-04-01T09:29:59.707Z,12.49
2023-04-01T09:32:53.515Z,12.66
2023-04-01T09:35:22.898Z,12.50
2023-04-01T09:37:52.266Z,12.54
2023-04-01T09:40:59.259Z,12.71
2023-04-01T09:44:04.736Z,12.64
2023-04-01T09:46:46.406Z,12.97
2023-04-01T09:49:37.754Z,12.89
2023-04-01T09:52:11.238Z,12.99
2023-04-01T09:54:49.024Z,12.97
2023-04-01T09:57:27.357Z,12.88
2023-04-01T10:00:51.245Z,12.94
2023-04-01T10:03:37.722Z,12.66
2023-04-01T10:06:22.132Z,12.76
2023-04-01T10:08:53.033Z,12.57
2023-04-01T10:11:34.862Z,12.60
2023-04-01T10:14:40.556Z,12.56
2023-04-01T10:17:25.526Z,12.71
2023-04-01T10:20:10.343Z,12.57
2023-04-01T10:23:08.306Z,12.48
2023-04-01T10:26:01.701Z,12.45
2023-04-01T10:29:03.803Z,12.55
2023-04-01T10:32:04.314Z,12.53
2023-04-01T10:34:40.587Z,12.55
2023-04-01T10:37:09.801Z,12.66
2023-04-01T10:39:55.010Z,12.46
2023-04-01T10:42:39.782Z,12.57
2023-04-01T10:45:48.646Z,12.51
2023-04-01T10:48:30.110Z,12.60
2023-04-01T10:51:11.802Z,12.61
2023-04-01T10:53:50.578Z,13.05
2023-04-01T10:56:29.157Z,13.04
2023-04-01T10:59:13.880Z,12.89
2023-04-01T11:02:11.448Z,12.93
2023-04-01T11:05:08.366Z,12.92
2023-04-01T11:08:02.866Z,13.15
2023-04-01T11:10:50.061Z,13.56
2023-04-01T11:13:35.254Z,13.76
2023-04-01T11:16:32.723Z,13.73
2023-04-01T11:19:31.547Z,13.97
2023-04-01T11:22:10.533Z,14.26
2023-04-01T11:24:44.400Z,14.27
2023-04-01T11:27:40.662Z,14.22
2023-04-01T11:30:16.808Z,14.64
2023-04-01T11:32:52.779Z,14.54
2023-04-01T11:35:41.385Z,14.68
2023-04-01T11:38:18.552Z,13.98
2023-04-01T11:41:09.728Z,13.45
2023-04-01T11:43:54.832Z,12.74
2023-04-01T11:46:43.158Z,12.55
2023-04-01T11:49:40.424Z,12.97
2023-04-01T11:52:09.913Z,13.27
2023-04-01T11:54:42.315Z,13.60
2023-04-01T11:57:11.538Z,14.15
2023-04-01T11:59:56.264Z,14.66
2023-04-01T12:02:54.059Z,14.65
2023-04-01T12:05:35.570Z,14.51
2023-04-01T12:08:37.311Z,14.52
2023-04-01T12:11:23.679Z,14.74
2023-04-01T12:14:25.785Z,14.87
2023-04-01T12:17:13.815Z,14.96
2023-04-01T12:20:21.511Z,14.30
2023-04-01T12:23:21.698Z,13.74
2023-04-01T12:26:06.259Z,13.67
2023-04-01T12:28:54.177Z,13.56
2023-04-01T12:31:32.920Z,13.75
2023-04-01T12:34:07.559Z,13.92
2023-04-01T12:36:34.095Z,13.86
2023-04-01T12:39:40.353Z,13.94
2023-04-01T12:42:25.573Z,14.04
2023-04-01T12:45:14.077Z,14.28
2023-04-01T12:47:46.652Z,14.80
2023-04-01T12:50:43.876Z,15.22
2023-04-01T12:53:21.634Z,14.94
2023-04-01T12:55:53.692Z,15.09
2023-04-01T12:58:39.265Z,15.29
2023-04-01T13:01:32.367Z,15.23
2023-04-01T13:04:01.949Z,15.49
2023-04-01T13:06:55.917Z,15.24
2023-04-01T13:09:32.768Z,15.10
2023-04-01T13:12:22.826Z,15.73
2023-04-01T13:14:52.286Z,15.81
2023-04-01T13:17:23.678Z,16.10
2023-04-01T13:20:15.508Z,16.00
2023-04-01T13:23:07.141Z,15.58
2023-04-01T13:26:06.855Z,15.69
2023-04-01T13:29:06.476Z,15.94
2023-04-01T13:32:00.630Z,15.50
2023-04-01T13:34:45.513Z,14.98
2023-04-01T13:37:24.246Z,15.14
2023-04-01T13:39:50.816Z,14.88
2023-04-01T13:42:41.683Z,15.75
2023-04-01T13:45:23.344Z,16.45
2023-04-01T13:48:02.043Z,16.64
2023-04-01T13:50:52.765Z,17.19
2023-04-01T13:53:41.113Z,16.18
2023-04-01T13:56:20.417Z,15.43
2023-04-01T13:59:15.400Z,15.64
2023-04-01T14:02:12.593Z,15.47
2023-04-01T14:04:45.013Z,15.25
2023-04-01T14:07:22.982Z,15.02
2023-04-01T14:09:58.627Z,15.27
2023-04-01T14:12:48.205Z,15.14
2023-04-01T14:15:53.618Z,15.53
2023-04-01T14:18:32.036Z,16.27
2023-04-01T14:21:29.920Z,16.04
2023-04-01T14:24:29.789Z,15.91
2023-04-01T14:27:17.737Z,15.60
2023-04-01T14:30:02.397Z,15.56
2023-04-01T14:32:31.648Z,15.38
2023-04-01T14:35:34.567Z,15.07
2023-04-01T14:38:26.969Z,14.73
2023-04-01T14:41:31.253Z,14.53
2023-04-01T14:44:31.184Z,14.48
2023-04-01T14:47:16.305Z,14.74
2023-04-01T14:49:47.230Z,14.69
2023-04-01T14:52:26.163Z,14.35
2023-04-01T14:54:53.873Z,15.13
2023-04-01T14:57:30.404Z,15.59
2023-04-01T15:00:18.932Z,14.94
2023-04-01T15:02:51.371Z,14.33
2023-04-01T15:05:34.968Z,14.09
2023-04-01T15:08:21.964Z,13.94
2023-04-01T15:11:06.963Z,13.76
2023-04-01T15:13:55.482Z,13.79
2023-04-01T15:16:52.938Z,13.79
2023-04-01T15:19:37.823Z,14.00
2023-04-01T15:22:30.019Z,14.04
2023-04-01T15:25:36.532Z,14.09
2023-04-01T15:28:55.906Z,13.70
2023-04-01T15:31:44.774Z,13.82
2023-04-01T15:34:29.570Z,13.70
2023-04-01T15:37:08.981Z,13.66
2023-04-01T15:40:00.311Z,13.27
2023-04-01T15:42:45.746Z,13.33
2023-04-01T15:45:36.087Z,13.31
2023-04-01T15:48:15.976Z,13.26
2023-04-01T15:50:57.804Z,13.45
2023-04-01T15:53:46.122Z,13.57
2023-04-01T15:56:12.650Z,13.48
2023-04-01T15:58:56.065Z,13.05
2023-04-01T16:01:53.183Z,13.05
2023-04-01T16:04:47.613Z,13.20
2023-04-01T16:07:32.981Z,13.06
2023-04-01T16:10:10.562Z,13.38
2023-04-01T16:12:52.277Z,13.16
2023-04-01T16:15:26.524Z,12.75
2023-04-01T16:18:14.413Z,12.80
2023-04-01T16:21:00.185Z,12.91
2023-04-01T16:23:51.202Z,12.84
2023-04-01T16:26:27.580Z,12.91
2023-04-01T16:29:12.551Z,12.80
2023-04-01T16:31:50.125Z,12.60
2023-04-01T16:34:30.006Z,12.69
2023-04-01T16:37:19.871Z,12.30
2023-04-01T16:40:21.827Z,12.51
2023-04-01T16:43:05.808Z,12.44
2023-04-01T16:45:54.178Z,12.41
2023-04-01T16:48:37.411Z,12.32
2023-04-01T16:51:12.592Z,12.15
2023-04-01T16:53:53.428Z,12.03
2023-04-01T16:56:25.468Z,11.91
2023-04-01T16:59:07.536Z,11.72
2023-04-01T17:02:01.511Z,11.73
2023-04-01T17:04:27.898Z,11.76
2023-04-01T17:07:21.433Z,11.55
2023-04-01T17:10:12.762Z,11.54
2023-04-01T17:12:47.164Z,11.50
2023-04-01T17:15:45.411Z,11.43
2023-04-01T17:18:24.438Z,11.21
2023-04-01T17:21:03.197Z,11.11
2023-04-01T17:23:46.693Z,10.91
2023-04-01T17:26:19.186Z,10.79
2023-04-01T17:28:48.752Z,10.74
2023-04-01T17:31:27.252Z,10.71
2023-04-01T17:33:56.845Z,10.68
2023-04-01T17:36:45.554Z,10.46
2023-04-01T17:39:47.517Z,10.42
2023-04-01T17:42:32.039Z,10.59
2023-04-01T17:45:09.275Z,10.50
2023-04-01T17:47:42.691Z,10.51
2023-04-01T17:50:12.024Z,10.78
2023-04-01T17:52:58.810Z,10.85
2023-04-01T17:56:03.347Z,10.65
2023-04-01T17:59:08.734Z,10.37
2023-04-01T18:01:49.699Z,10.25
2023-04-01T18:04:53.948Z,10.15
2023-04-01T18:07:28.829Z,10.11
2023-04-01T18:10:05.961Z,10.12
2023-04-01T18:13:05.441Z,10.23
2023-04-01T18:15:35.047Z,10.35
2023-04-01T18:18:10.452Z,10.37
2023-04-01T18:20:37.199Z,10.23
2023-04-01T18:23:19.853Z,10.15
2023-04-01T18:25:49.600Z,10.16
2023-04-01T18:28:19.592Z,10.08
2023-04-01T18:30:57.437Z,10.08
2023-04-01T18:33:41.909Z,9.99
2023-04-01T18:36:20.719Z,9.95
2023-04-01T18:38:55.413Z,10.23
2023-04-01T18:41:35.635Z,10.31
2023-04-01T18:44:13.612Z,10.23
2023-04-01T18:47:16.929Z,10.04
2023-04-01T18:50:02.934Z,9.94
2023-04-01T18:52:40.805Z,9.97
2023-04-01T18:55:08.687Z,10.11
2023-04-01T18:57:57.759Z,10.08
2023-04-01T19:00:45.927Z,9.99
2023-04-01T19:03:32.557Z,10.00
2023-04-01T19:06:09.273Z,10.24
2023-04-01T19:08:40.330Z,10.39
2023-04-01T19:11:25.480Z,10.27
2023-04-01T19:14:15.130Z,10.27
2023-04-01T19:17:16.663Z,10.45
2023-04-01T19:19:56.596Z,10.28
2023-04-01T19:22:42.181Z,10.20
2023-04-01T19:25:11.715Z,10.20
2023-04-01T19:27:51.316Z,10.14
2023-04-01T19:30:33.097Z,10.04
2023-04-01T19:33:19.509Z,9.99
2023-04-01T19:36:07.341Z,10.02
2023-04-01T19:38:41.417Z,10.03
2023-04-01T19:41:27.102Z,10.09
2023-04-01T19:44:31.364Z,10.09
2023-04-01T19:47:35.499Z,10.11
2023-04-01T19:50:11.564Z,10.07
2023-04-01T19:52:41.781Z,10.00
2023-04-01T19:55:20.104Z,10.05
2023-04-01T19:58:07.829Z,10.06
2023-04-01T20:00:38.503Z,9.96
2023-04-01T20:03:35.477Z,9.93
2023-04-01T20:06:20.472Z,9.87
2023-04-01T20:09:20.433Z,9.76
2023-04-01T20:12:02.805Z,9.80
2023-04-01T20:14:52.752Z,9.93
2023-04-01T20:17:44.440Z,10.01
2023-04-01T20:20:11.025Z,10.01
2023-04-01T20:22:46.571Z,9.92
2023-04-01T20:25:16.804Z,9.90
2023-04-01T20:27:53.981Z,10.02
2023-04-01T20:30:38.488Z,9.78
2023-04-01T20:33:10.877Z,9.86
2023-04-01T20:36:00.976Z,9.85
2023-04-01T20:38:39.765Z,9.89
2023-04-01T20:41:24.110Z,9.83
2023-04-01T20:44:19.803Z,9.79
2023-04-01T20:46:54.490Z,9.78
2023-04-01T20:49:41.493Z,9.76
2023-04-01T20:52:13.751Z,9.69
2023-04-01T20:54:45.384Z,9.70
2023-04-01T20:57:33.851Z,9.86
2023-04-01T21:00:34.190Z,9.77
2023-04-01T21:03:12.989Z,9.70
2023-04-01T21:06:04.970Z,9.70
2023-04-01T21:08:49.070Z,9.67
2023-04-01T21:11:39.715Z,9.68
2023-04-01T21:14:27.743Z,9.90
2023-04-01T21:17:09.658Z,9.86
2023-04-01T21:20:10.550Z,9.77
2023-04-01T21:22:43.166Z,9.95
2023-04-01T21:25:29.864Z,10.11
2023-04-01T21:28:23.732Z,9.85
2023-04-01T21:31:05.665Z,9.96
2023-04-01T21:33:51.349Z,9.96
2023-04-01T21:36:42.268Z,9.83
2023-04-01T21:39:23.911Z,9.92
2023-04-01T21:42:08.702Z,9.87
2023-04-01T21:44:44.970Z,9.89
2023-04-01T21:47:44.756Z,9.82
2023-04-01T21:50:20.910Z,9.61
2023-04-01T21:53:05.828Z,9.57
2023-04-01T21:56:10.321Z,9.57
2023-04-01T21:58:39.810Z,9.59
2023-04-01T22:01:25.948Z,9.55
2023-04-01T22:04:04.795Z,9.52
2023-04-01T22:06:54.926Z,9.46
2023-04-01T22:09:36.587Z,9.36
2023-04-01T22:12:06.669Z,9.27
2023-04-01T22:14:57.714Z,9.26
2023-04-01T22:17:39.723Z,9.31
2023-04-01T22:20:20.501Z,9.21
2023-04-01T22:23:13.707Z,9.19
2023-04-01T22:26:01.712Z,9.08
2023-04-01T22:28:49.900Z,9.09
2023-04-01T22:31:24.518Z,8.86
2023-04-01T22:34:23.457Z,8.83
2023-04-01T22:36:58.657Z,8.87
2023-04-01T22:39:52.413Z,8.91
2023-04-01T22:42:45.568Z,8.95
2023-04-01T22:45:12.870Z,8.84
2023-04-01T22:48:03.543Z,8.86
2023-04-01T22:50:50.385Z,8.91
2023-04-01T22:53:33.572Z,8.90
2023-04-01T22:56:05.475Z,8.74
2023-04-01T22:58:38.878Z,8.82
2023-04-01T23:01:22.669Z,8.76
2023-04-01T23:03:52.542Z,8.76
2023-04-01T23:06:28.831Z,8.60
2023-04-01T23:09:15.632Z,8.75
2023-04-01T23:11:48.552Z,8.60
2023-04-01T23:14:30.244Z,8.45
2023-04-01T23:17:10.738Z,8.64
2023-04-01T23:19:49.404Z,8.38
2023-04-01T23:22:34.942Z,8.44
2023-04-01T23:25:53.152Z,8.48
2023-04-01T23:28:43.114Z,8.16
2023-04-01T23:31:31.659Z,8.35
2023-04-01T23:34:04.711Z,8.31
2023-04-01T23:36:37.232Z,8.29
2023-04-01T23:39:16.647Z,8.07
2023-04-01T23:41:43.318Z,8.20
2023-04-01T23:44:13.159Z,8.09
2023-04-01T23:46:41.753Z,8.04
2023-04-01T23:49:19.878Z,7.92
2023-04-01T23:52:00.242Z,7.81
2023-04-01T23:54:39.699Z,7.99
2023-04-01T23:57:14.413Z,7.95
2023-04-01T23:59:41.344Z,7.81
